Time;durP1;ratioP1;P1;durP2;ratioP2;P2;SDS_P1;SDS_P2;PMS_P1;PMS_P2;Temp;Humidity;BMP_temperature;BMP_pressure;BME280_temperature;BME280_humidity;BME280_pressure;Samples;Min_cycle;Max_cycle;Signal;HPM_P1;HPM_P2
2022/09/25 00:00:35;;;;;;;6.70;3.08;;;;;;;;;;6139204;23;20036;-82
2022/09/25 00:03:02;;;;;;;11.35;3.13;;;;;;;;;;6152098;23;20033;-81
2022/09/25 00:05:28;;;;;;;6.72;2.50;;;;;;;;;;6151492;23;20809;-81
2022/09/25 00:07:55;;;;;;;6.35;2.35;;;;;;;;;;6125968;23;20041;-81
2022/09/25 00:10:24;;;;;;;7.03;2.55;;;;;;;;;;6151853;23;20025;-81
2022/09/25 00:12:50;;;;;;;5.40;2.28;;;;;;;;;;6126042;23;20025;-81
2022/09/25 00:15:17;;;;;;;6.93;2.15;;;;;;;;;;6150426;23;20022;-81
2022/09/25 00:17:43;;;;;;;5.72;2.50;;;;;;;;;;6151681;23;20352;-82
2022/09/25 00:20:09;;;;;;;7.88;2.33;;;;;;;;;;6151190;23;20487;-81
2022/09/25 00:22:35;;;;;;;9.75;2.40;;;;;;;;;;6152067;23;20032;-81
2022/09/25 00:25:02;;;;;;;7.40;2.55;;;;;;;;;;6124851;23;20022;-81
2022/09/25 00:27:28;;;;;;;8.20;2.80;;;;;;;;;;6152343;23;20048;-81
2022/09/25 00:29:55;;;;;;;10.55;2.80;;;;;;;;;;6152387;23;20081;-81
2022/09/25 00:32:21;;;;;;;7.80;2.53;;;;;;;;;;6152443;23;20026;-81
2022/09/25 00:34:48;;;;;;;7.65;2.60;;;;;;;;;;6152176;23;20415;-81
2022/09/25 00:37:14;;;;;;;8.68;2.50;;;;;;;;;;6124726;23;20030;-82
2022/09/25 00:39:40;;;;;;;8.07;2.30;;;;;;;;;;6125352;23;20033;-81
2022/09/25 00:42:09;;;;;;;5.10;2.97;;;;;;;;;;6152199;23;20030;-81
2022/09/25 00:44:42;;;;;;;6.85;2.53;;;;;;;;;;6124180;23;20026;-82
2022/09/25 00:47:09;;;;;;;6.65;2.35;;;;;;;;;;6150471;23;20650;-81
2022/09/25 00:49:36;;;;;;;7.30;2.30;;;;;;;;;;6125570;23;20504;-81
2022/09/25 00:52:05;;;;;;;5.95;1.83;;;;;;;;;;6152905;23;20038;-81
2022/09/25 00:54:40;;;;;;;6.00;1.88;;;;;;;;;;6125442;23;20475;-81
2022/09/25 00:57:09;;;;;;;5.43;1.83;;;;;;;;;;6125667;23;20536;-81
2022/09/25 00:59:38;;;;;;;3.15;1.35;;;;;;;;;;6119534;23;20510;-81
2022/09/25 01:02:04;;;;;;;6.10;1.40;;;;;;;;;;6145129;23;20391;-81
2022/09/25 01:04:33;;;;;;;4.95;1.63;;;;;;;;;;6121983;23;20034;-81
2022/09/25 01:06:59;;;;;;;4.90;1.77;;;;;;;;;;6122709;23;20023;-81
2022/09/25 01:09:26;;;;;;;5.53;1.60;;;;;;;;;;6144250;23;20022;-81
2022/09/25 01:11:53;;;;;;;4.35;1.60;;;;;;;;;;6121828;23;20015;-81
2022/09/25 01:14:22;;;;;;;4.57;1.60;;;;;;;;;;6121468;23;20352;-81
2022/09/25 01:16:48;;;;;;;3.88;1.70;;;;;;;;;;6122805;23;20026;-82
2022/09/25 01:19:26;;;;;;;5.70;1.77;;;;;;;;;;6121798;23;20030;-81
2022/09/25 01:22:03;;;;;;;5.55;1.90;;;;;;;;;;6144585;23;20042;-82
2022/09/25 01:24:32;;;;;;;7.20;1.92;;;;;;;;;;6118319;23;20018;-82
2022/09/25 01:27:13;;;;;;;5.55;1.95;;;;;;;;;;6144943;23;20034;-81
2022/09/25 01:29:43;;;;;;;5.60;1.60;;;;;;;;;;6145518;23;20038;-81
2022/09/25 01:32:09;;;;;;;4.07;1.70;;;;;;;;;;6145000;23;20463;-81
2022/09/25 01:34:43;;;;;;;8.38;1.65;;;;;;;;;;6121290;23;20050;-81
2022/09/25 01:37:31;;;;;;;6.18;1.55;;;;;;;;;;6145039;23;20474;-81
2022/09/25 01:40:03;;;;;;;3.45;1.20;;;;;;;;;;6144039;23;20036;-81
2022/09/25 01:42:35;;;;;;;3.00;1.20;;;;;;;;;;6120947;23;20030;-81
2022/09/25 01:45:04;;;;;;;2.95;1.02;;;;;;;;;;6120677;23;20037;-81
2022/09/25 01:47:34;;;;;;;3.78;1.38;;;;;;;;;;6120234;23;20032;-81
2022/09/25 01:50:04;;;;;;;3.92;0.95;;;;;;;;;;6121722;23;20475;-81
2022/09/25 01:52:35;;;;;;;2.70;0.80;;;;;;;;;;6119826;23;20022;-81
2022/09/25 01:55:02;;;;;;;;;;;;;;;;;;6120465;23;20909;-81
2022/09/25 01:57:31;;;;;;;2.42;0.98;;;;;;;;;;6119113;23;46456;-81
2022/09/25 02:00:01;;;;;;;2.67;1.10;;;;;;;;;;6144782;23;20459;-81
2022/09/25 02:02:32;;;;;;;3.35;1.20;;;;;;;;;;6122286;23;20026;-81
2022/09/25 02:05:08;;;;;;;4.43;1.25;;;;;;;;;;6118493;23;20032;-81
2022/09/25 02:07:38;;;;;;;3.53;1.42;;;;;;;;;;6143647;23;20030;-81
2022/09/25 02:10:11;;;;;;;5.65;1.33;;;;;;;;;;6117001;23;20861;-81
2022/09/25 02:12:42;;;;;;;3.60;1.20;;;;;;;;;;6119560;23;20560;-81
2022/09/25 02:15:10;;;;;;;2.85;1.00;;;;;;;;;;6119903;23;20102;-81
2022/09/25 02:20:33;;;;;;;3.95;1.40;;;;;;;;;;6121715;23;20031;-81
2022/09/25 02:23:09;;;;;;;3.90;1.45;;;;;;;;;;6120593;23;20050;-81
2022/09/25 02:25:38;;;;;;;3.38;1.50;;;;;;;;;;6121094;23;20458;-81
2022/09/25 02:28:05;;;;;;;3.60;1.63;;;;;;;;;;6121934;23;20018;-81
2022/09/25 02:30:34;;;;;;;4.88;1.50;;;;;;;;;;6144681;23;20535;-81
2022/09/25 02:33:00;;;;;;;5.65;1.60;;;;;;;;;;6119799;23;20729;-81
2022/09/25 02:35:27;;;;;;;5.72;1.70;;;;;;;;;;6121298;23;20022;-81
2022/09/25 02:37:55;;;;;;;3.88;1.50;;;;;;;;;;6120602;23;20026;-81
2022/09/25 02:40:33;;;;;;;4.78;1.50;;;;;;;;;;6120568;23;20037;-81
2022/09/25 02:43:05;;;;;;;4.32;1.50;;;;;;;;;;6120768;23;20360;-81
2022/09/25 02:45:32;;;;;;;3.50;1.20;;;;;;;;;;6143322;23;20594;-81
2022/09/25 02:48:02;;;;;;;5.72;1.50;;;;;;;;;;6122276;23;20034;-81
2022/09/25 02:50:35;;;;;;;4.78;1.50;;;;;;;;;;6121811;23;20031;-81
2022/09/25 02:53:04;;;;;;;6.40;1.48;;;;;;;;;;6120100;23;20034;-81
2022/09/25 02:55:46;;;;;;;3.03;1.20;;;;;;;;;;6145110;23;20026;-81
2022/09/25 02:58:13;;;;;;;3.47;1.00;;;;;;;;;;6122213;23;20026;-80
2022/09/25 03:00:40;;;;;;;4.63;1.15;;;;;;;;;;6143984;23;20014;-81
2022/09/25 03:03:09;;;;;;;2.28;0.90;;;;;;;;;;6119602;23;20025;-81
2022/09/25 03:05:38;;;;;;;2.42;0.90;;;;;;;;;;6119785;23;20058;-81
2022/09/25 03:10:50;;;;;;;4.60;1.10;;;;;;;;;;6121236;23;20026;-81
2022/09/25 03:13:18;;;;;;;2.83;1.05;;;;;;;;;;6119617;23;20038;-81
2022/09/25 03:15:47;;;;;;;5.35;1.05;;;;;;;;;;6119932;23;20069;-81
2022/09/25 03:18:13;;;;;;;2.45;1.00;;;;;;;;;;6120791;23;20032;-81
2022/09/25 03:20:40;;;;;;;2.85;1.00;;;;;;;;;;6119571;23;20027;-80
2022/09/25 03:23:07;;;;;;;4.10;1.08;;;;;;;;;;6119173;23;20594;-81
2022/09/25 03:25:33;;;;;;;3.15;0.90;;;;;;;;;;6120413;23;20030;-81
2022/09/25 03:27:59;;;;;;;4.43;1.23;;;;;;;;;;6119571;23;20027;-81
2022/09/25 03:30:28;;;;;;;2.40;0.90;;;;;;;;;;6145505;23;20431;-81
2022/09/25 03:32:54;;;;;;;5.40;1.10;;;;;;;;;;6118712;23;20054;-81
2022/09/25 03:35:21;;;;;;;2.75;1.05;;;;;;;;;;6143310;23;20022;-81
2022/09/25 03:37:47;;;;;;;2.80;0.93;;;;;;;;;;6145321;23;20026;-81
2022/09/25 03:40:14;;;;;;;4.60;1.10;;;;;;;;;;6121454;23;20111;-81
2022/09/25 03:42:42;;;;;;;4.35;1.15;;;;;;;;;;6119436;23;20037;-81
2022/09/25 03:45:09;;;;;;;3.88;1.10;;;;;;;;;;6143902;23;20463;-82
2022/09/25 03:47:35;;;;;;;3.35;1.00;;;;;;;;;;6119180;23;20034;-82
2022/09/25 03:50:02;;;;;;;2.88;1.10;;;;;;;;;;6120513;23;20466;-82
2022/09/25 03:52:28;;;;;;;3.40;0.95;;;;;;;;;;6120493;23;20033;-82
2022/09/25 03:54:54;;;;;;;10.07;1.55;;;;;;;;;;6119812;23;20082;-82
2022/09/25 03:57:21;;;;;;;2.40;0.85;;;;;;;;;;6143983;23;20026;-79
2022/09/25 03:59:47;;;;;;;3.58;1.10;;;;;;;;;;6119004;23;20014;-80
2022/09/25 04:02:13;;;;;;;3.67;0.90;;;;;;;;;;6144025;23;20038;-80
2022/09/25 04:04:39;;;;;;;5.53;1.00;;;;;;;;;;6144158;23;20023;-80
2022/09/25 04:07:07;;;;;;;1.92;0.70;;;;;;;;;;6118736;23;20298;-80
2022/09/25 04:09:33;;;;;;;3.08;0.80;;;;;;;;;;6144200;23;20026;-80
2022/09/25 04:12:00;;;;;;;4.18;1.00;;;;;;;;;;6120206;23;20033;-80
2022/09/25 04:14:26;;;;;;;4.35;0.73;;;;;;;;;;6144539;23;20022;-81
2022/09/25 04:16:52;;;;;;;2.95;0.80;;;;;;;;;;6119437;23;20057;-81
2022/09/25 04:19:18;;;;;;;4.53;0.80;;;;;;;;;;6120036;23;20499;-81
2022/09/25 04:21:45;;;;;;;2.03;0.70;;;;;;;;;;6120486;23;20026;-81
2022/09/25 04:26:56;;;;;;;3.13;0.93;;;;;;;;;;6123301;23;20041;-81
2022/09/25 04:29:23;;;;;;;6.20;0.88;;;;;;;;;;6122054;23;20022;-81
2022/09/25 04:33:45;;;;;;;5.20;1.00;;;;;;;;;;6122800;23;20026;-81
2022/09/25 04:34:36;;;;;;;3.42;0.88;;;;;;;;;;6122770;23;20440;-81
2022/09/25 04:37:02;;;;;;;3.60;1.10;;;;;;;;;;6145046;23;20030;-82
2022/09/25 04:39:29;;;;;;;3.30;1.02;;;;;;;;;;6123751;23;20125;-81
2022/09/25 04:41:55;;;;;;;3.28;1.10;;;;;;;;;;6120224;23;20029;-81
2022/09/25 04:44:21;;;;;;;4.65;1.30;;;;;;;;;;6121063;23;20030;-81
2022/09/25 04:46:48;;;;;;;3.80;1.30;;;;;;;;;;6144912;23;20086;-81
2022/09/25 04:49:14;;;;;;;4.07;1.20;;;;;;;;;;6121486;23;20029;-81
2022/09/25 04:51:40;;;;;;;4.57;1.38;;;;;;;;;;6121874;23;20022;-81
2022/09/25 04:54:07;;;;;;;3.88;1.15;;;;;;;;;;6121543;23;20030;-81
2022/09/25 04:56:33;;;;;;;5.05;1.20;;;;;;;;;;6123277;23;20026;-81
2022/09/25 04:58:59;;;;;;;5.30;1.13;;;;;;;;;;6120739;23;20030;-81
2022/09/25 05:01:25;;;;;;;3.47;1.00;;;;;;;;;;6119938;23;20060;-81
2022/09/25 05:03:52;;;;;;;3.97;1.00;;;;;;;;;;6120426;23;20027;-81
2022/09/25 05:06:20;;;;;;;4.50;1.42;;;;;;;;;;6121635;23;20041;-81
2022/09/25 05:08:48;;;;;;;6.05;1.85;;;;;;;;;;6145097;23;20033;-81
2022/09/25 05:11:14;;;;;;;3.90;1.20;;;;;;;;;;6122997;23;20444;-81
2022/09/25 05:13:45;;;;;;;5.55;1.33;;;;;;;;;;6145097;23;20010;-81
2022/09/25 05:16:11;;;;;;;5.78;1.60;;;;;;;;;;6144873;23;20058;-81
2022/09/25 05:18:37;;;;;;;8.40;1.73;;;;;;;;;;6144137;23;21012;-81
2022/09/25 05:21:04;;;;;;;4.43;1.30;;;;;;;;;;6121325;23;20022;-81
2022/09/25 05:23:30;;;;;;;6.05;1.83;;;;;;;;;;6145070;23;20027;-81
2022/09/25 05:25:59;;;;;;;4.65;1.75;;;;;;;;;;6120692;23;20027;-81
2022/09/25 05:28:25;;;;;;;5.70;1.50;;;;;;;;;;6120928;23;20038;-81
2022/09/25 05:30:52;;;;;;;6.82;1.35;;;;;;;;;;6145341;23;20048;-81
2022/09/25 05:33:18;;;;;;;4.35;1.42;;;;;;;;;;6120299;23;20018;-82
2022/09/25 05:35:45;;;;;;;10.15;1.50;;;;;;;;;;6146372;23;20034;-81
2022/09/25 05:38:11;;;;;;;4.40;1.63;;;;;;;;;;6121023;23;20384;-81
2022/09/25 05:40:40;;;;;;;5.45;1.70;;;;;;;;;;6122360;23;20655;-81
2022/09/25 05:43:07;;;;;;;3.92;1.65;;;;;;;;;;6145085;23;20023;-81
2022/09/25 05:45:34;;;;;;;4.15;1.90;;;;;;;;;;6121002;23;20034;-81
2022/09/25 05:48:02;;;;;;;4.38;1.58;;;;;;;;;;6120448;23;20053;-81
2022/09/25 05:50:31;;;;;;;5.03;1.77;;;;;;;;;;6119532;23;20490;-81
2022/09/25 05:52:58;;;;;;;8.02;2.55;;;;;;;;;;6120738;23;20034;-81
2022/09/25 05:55:24;;;;;;;6.78;1.65;;;;;;;;;;6121909;23;20471;-82
2022/09/25 05:57:51;;;;;;;3.80;1.52;;;;;;;;;;6120520;23;20352;-81
2022/09/25 06:00:17;;;;;;;3.50;1.20;;;;;;;;;;6136721;23;20026;-81
2022/09/25 06:02:43;;;;;;;3.10;1.33;;;;;;;;;;6152790;23;20076;-81
2022/09/25 06:05:10;;;;;;;4.00;1.67;;;;;;;;;;6125450;23;20062;-81
2022/09/25 06:07:39;;;;;;;3.38;1.30;;;;;;;;;;6125968;23;20449;-81
2022/09/25 06:10:06;;;;;;;6.57;1.77;;;;;;;;;;6152563;23;20026;-81
2022/09/25 06:12:32;;;;;;;5.07;1.30;;;;;;;;;;6127336;23;20455;-82
2022/09/25 06:14:59;;;;;;;3.65;1.45;;;;;;;;;;6127779;23;20022;-82
2022/09/25 06:17:25;;;;;;;3.13;1.40;;;;;;;;;;6152147;23;20022;-81
2022/09/25 06:19:52;;;;;;;3.30;1.40;;;;;;;;;;6125361;23;20030;-81
2022/09/25 06:22:18;;;;;;;5.10;1.83;;;;;;;;;;6125615;23;20026;-81
2022/09/25 06:24:45;;;;;;;5.07;1.63;;;;;;;;;;6152066;23;20032;-81
2022/09/25 06:27:12;;;;;;;4.75;1.50;;;;;;;;;;6151885;23;20029;-81
2022/09/25 06:29:40;;;;;;;7.68;1.92;;;;;;;;;;6127228;23;20872;-82
2022/09/25 06:32:07;;;;;;;6.47;2.00;;;;;;;;;;6127243;23;20020;-82
2022/09/25 06:34:33;;;;;;;6.40;1.98;;;;;;;;;;6153479;23;20021;-82
2022/09/25 06:37:00;;;;;;;7.32;1.90;;;;;;;;;;6125809;23;20022;-82
2022/09/25 06:39:26;;;;;;;5.78;1.60;;;;;;;;;;6126261;23;20360;-82
2022/09/25 06:41:52;;;;;;;3.65;1.60;;;;;;;;;;6124938;23;20033;-82
2022/09/25 06:44:19;;;;;;;4.57;1.55;;;;;;;;;;6125125;23;20101;-82
2022/09/25 06:46:53;;;;;;;3.50;1.55;;;;;;;;;;6153470;23;20111;-82
2022/09/25 06:49:20;;;;;;;4.80;1.63;;;;;;;;;;6128990;23;20022;-80
2022/09/25 06:51:46;;;;;;;4.40;1.50;;;;;;;;;;6152285;23;20014;-81
2022/09/25 06:54:13;;;;;;;4.50;1.95;;;;;;;;;;6124403;23;20504;-79
2022/09/25 06:56:40;;;;;;;5.15;2.20;;;;;;;;;;6151201;23;20037;-81
2022/09/25 06:59:07;;;;;;;5.88;1.98;;;;;;;;;;6124062;23;20034;-81
2022/09/25 07:01:34;;;;;;;4.85;1.98;;;;;;;;;;6147068;23;20253;-81
2022/09/25 07:04:02;;;;;;;8.65;2.30;;;;;;;;;;6123025;23;20032;-81
2022/09/25 07:06:30;;;;;;;6.75;2.00;;;;;;;;;;6150422;23;20033;-80
2022/09/25 07:08:56;;;;;;;5.20;2.40;;;;;;;;;;6124940;23;20026;-81
2022/09/25 07:11:24;;;;;;;6.00;1.92;;;;;;;;;;6151632;23;20030;-81
2022/09/25 07:13:56;;;;;;;7.40;2.72;;;;;;;;;;6126830;23;20541;-81
2022/09/25 07:16:25;;;;;;;8.75;3.10;;;;;;;;;;6125946;23;20026;-81
2022/09/25 07:18:52;;;;;;;7.78;2.80;;;;;;;;;;6150129;23;20162;-80
2022/09/25 07:21:19;;;;;;;5.72;3.00;;;;;;;;;;6124893;23;20033;-80
2022/09/25 07:23:47;;;;;;;8.60;3.08;;;;;;;;;;6124769;23;20022;-80
2022/09/25 07:26:15;;;;;;;8.25;3.33;;;;;;;;;;6151262;23;20036;-80
2022/09/25 07:28:42;;;;;;;9.18;3.65;;;;;;;;;;6124171;23;20184;-80
2022/09/25 07:31:13;;;;;;;13.20;4.00;;;;;;;;;;6147497;23;20037;-81
2022/09/25 07:33:40;;;;;;;8.82;2.97;;;;;;;;;;6149268;23;20030;-81
2022/09/25 07:36:07;;;;;;;8.65;2.95;;;;;;;;;;6150391;23;20030;-81
2022/09/25 07:38:35;;;;;;;13.40;3.30;;;;;;;;;;6123446;23;20034;-80
2022/09/25 07:41:04;;;;;;;9.15;2.92;;;;;;;;;;6122550;23;20445;-80
2022/09/25 07:43:33;;;;;;;9.13;3.00;;;;;;;;;;6147714;23;20033;-80
2022/09/25 07:45:59;;;;;;;8.57;2.47;;;;;;;;;;6148599;23;20053;-80
2022/09/25 07:48:29;;;;;;;6.72;2.00;;;;;;;;;;6149123;23;20062;-80
2022/09/25 07:51:02;;;;;;;6.40;2.30;;;;;;;;;;6127381;23;20034;-80
2022/09/25 07:53:29;;;;;;;5.90;1.88;;;;;;;;;;6152924;23;20029;-81
2022/09/25 07:55:59;;;;;;;7.60;2.47;;;;;;;;;;6125513;23;20017;-80
2022/09/25 07:58:33;;;;;;;5.55;1.60;;;;;;;;;;6153354;23;20026;-80
2022/09/25 08:01:01;;;;;;;5.13;2.00;;;;;;;;;;6119760;23;20027;-80
2022/09/25 08:03:28;;;;;;;4.65;1.40;;;;;;;;;;6123718;23;20023;-80
2022/09/25 08:05:58;;;;;;;3.92;1.55;;;;;;;;;;6121969;23;20797;-80
2022/09/25 08:08:25;;;;;;;5.60;1.30;;;;;;;;;;6146235;23;20560;-80
2022/09/25 08:10:52;;;;;;;3.67;1.20;;;;;;;;;;6121808;23;20486;-80
2022/09/25 08:13:20;;;;;;;6.68;1.48;;;;;;;;;;6122413;23;20047;-80
2022/09/25 08:15:47;;;;;;;4.88;1.38;;;;;;;;;;6122560;23;20030;-80
2022/09/25 08:18:13;;;;;;;5.60;1.30;;;;;;;;;;6121473;23;20034;-81
2022/09/25 09:06:35;;;;;;;9.80;1.05;;;;;;;;;;6180185;23;20009;-81
2022/09/25 09:09:12;;;;;;;5.28;1.00;;;;;;;;;;6165995;23;20021;-79
2022/09/25 09:11:47;;;;;;;6.55;1.00;;;;;;;;;;6189921;23;20064;-79
2022/09/25 09:14:16;;;;;;;7.07;1.20;;;;;;;;;;6153758;23;20026;-79
2022/09/25 09:16:50;;;;;;;5.15;1.00;;;;;;;;;;6131467;23;20029;-78
2022/09/25 09:19:17;;;;;;;5.55;1.00;;;;;;;;;;6130783;23;20060;-79
2022/09/25 09:21:56;;;;;;;4.90;0.80;;;;;;;;;;6134259;23;20042;-78
2022/09/25 09:24:22;;;;;;;8.68;1.00;;;;;;;;;;6134348;23;20102;-79
2022/09/25 09:26:57;;;;;;;3.92;0.95;;;;;;;;;;6134139;23;20498;-78
2022/09/25 09:29:27;;;;;;;6.28;1.13;;;;;;;;;;6133957;23;20037;-79
2022/09/25 09:32:14;;;;;;;5.63;1.05;;;;;;;;;;6133256;23;20037;-79
2022/09/25 09:34:40;;;;;;;4.65;1.00;;;;;;;;;;6141843;23;20029;-80
2022/09/25 09:37:30;;;;;;;11.10;1.33;;;;;;;;;;6139694;23;20024;-79
2022/09/25 09:39:56;;;;;;;7.75;1.45;;;;;;;;;;6134587;23;20029;-79
2022/09/25 09:42:32;;;;;;;6.25;1.25;;;;;;;;;;6135112;23;20026;-80
2022/09/25 09:45:16;;;;;;;6.65;1.20;;;;;;;;;;6135440;23;20497;-79
2022/09/25 09:47:54;;;;;;;5.35;0.90;;;;;;;;;;6134635;23;20037;-79
2022/09/25 09:50:36;;;;;;;7.25;0.95;;;;;;;;;;6161725;23;20033;-78
2022/09/25 09:53:19;;;;;;;4.57;1.13;;;;;;;;;;6159878;23;20026;-79
2022/09/25 09:55:49;;;;;;;5.45;1.08;;;;;;;;;;6132228;23;20510;-78
2022/09/25 09:58:18;;;;;;;6.97;1.17;;;;;;;;;;6161163;23;20017;-80
2022/09/25 10:00:47;;;;;;;6.10;1.20;;;;;;;;;;6134399;23;20026;-80
2022/09/25 10:03:22;;;;;;;4.95;1.40;;;;;;;;;;6132581;23;20032;-79
2022/09/25 10:05:50;;;;;;;6.20;1.20;;;;;;;;;;6163120;23;20486;-78
2022/09/25 10:08:17;;;;;;;5.13;1.40;;;;;;;;;;6187985;23;20047;-79
2022/09/25 10:10:44;;;;;;;8.40;1.48;;;;;;;;;;6187509;23;20459;-80
2022/09/25 10:13:14;;;;;;;5.30;1.10;;;;;;;;;;6187469;23;20855;-80
2022/09/25 10:15:55;;;;;;;5.80;1.02;;;;;;;;;;6187639;23;20033;-81
2022/09/25 10:18:23;;;;;;;7.00;1.08;;;;;;;;;;6188091;23;20025;-79
2022/09/25 10:20:56;;;;;;;4.85;1.00;;;;;;;;;;6190087;23;20031;-80
2022/09/25 10:23:37;;;;;;;5.20;0.90;;;;;;;;;;6189742;23;20026;-79
2022/09/25 10:26:22;;;;;;;6.32;0.73;;;;;;;;;;6191040;23;20036;-79
2022/09/25 10:28:48;;;;;;;3.50;0.90;;;;;;;;;;6187669;23;20025;-79
2022/09/25 10:31:16;;;;;;;7.05;1.10;;;;;;;;;;6189239;23;20051;-79
2022/09/25 10:33:56;;;;;;;4.85;1.20;;;;;;;;;;6187679;23;20100;-78
2022/09/25 10:36:42;;;;;;;2.83;0.82;;;;;;;;;;6190446;23;20025;-79
2022/09/25 10:39:38;;;;;;;4.63;1.00;;;;;;;;;;6189193;23;20034;-79
2022/09/25 10:42:31;;;;;;;5.28;1.13;;;;;;;;;;6173994;23;20025;-79
2022/09/25 10:44:58;;;;;;;6.82;1.05;;;;;;;;;;6189914;23;20029;-80
2022/09/25 10:50:20;;;;;;;6.40;1.05;;;;;;;;;;6189849;23;20022;-79
2022/09/25 10:52:51;;;;;;;4.38;0.90;;;;;;;;;;6189592;23;20025;-80
2022/09/25 10:55:29;;;;;;;8.30;1.00;;;;;;;;;;6187694;23;20025;-79
2022/09/25 10:58:10;;;;;;;5.97;1.00;;;;;;;;;;6189027;23;20031;-79
2022/09/25 11:00:41;;;;;;;6.90;1.30;;;;;;;;;;6189599;23;20006;-80
2022/09/25 11:03:13;;;;;;;4.18;0.98;;;;;;;;;;6187774;23;20018;-79
2022/09/25 11:05:48;;;;;;;4.55;0.90;;;;;;;;;;6185655;23;20021;-80
2022/09/25 11:08:15;;;;;;;5.53;0.90;;;;;;;;;;6190975;23;20030;-80
2022/09/25 11:10:51;;;;;;;4.75;0.90;;;;;;;;;;6187849;23;20033;-81
2022/09/25 11:13:27;;;;;;;3.17;0.70;;;;;;;;;;6190143;23;21026;-81
2022/09/25 11:16:08;;;;;;;2.53;0.88;;;;;;;;;;6188965;23;20089;-81
2022/09/25 11:18:36;;;;;;;6.43;1.10;;;;;;;;;;6194422;23;20464;-80
2022/09/25 11:21:04;;;;;;;5.05;0.95;;;;;;;;;;6194254;23;20013;-80
2022/09/25 11:23:33;;;;;;;5.82;0.90;;;;;;;;;;6190320;23;20030;-80
2022/09/25 11:26:08;;;;;;;4.50;1.00;;;;;;;;;;6187690;23;20864;-79
2022/09/25 11:28:53;;;;;;;3.33;0.75;;;;;;;;;;6186831;23;20041;-80
2022/09/25 11:31:20;;;;;;;7.32;0.98;;;;;;;;;;6186473;23;20030;-79
2022/09/25 11:33:51;;;;;;;4.20;0.95;;;;;;;;;;6185686;23;20036;-78
2022/09/25 11:36:21;;;;;;;3.83;1.00;;;;;;;;;;6186741;23;20032;-78
2022/09/25 11:41:44;;;;;;;4.78;0.95;;;;;;;;;;6188836;23;20017;-79
2022/09/25 11:44:22;;;;;;;3.72;0.80;;;;;;;;;;6185523;23;20382;-79
2022/09/25 11:47:03;;;;;;;2.65;0.63;;;;;;;;;;6186767;23;20026;-78
2022/09/25 11:49:40;;;;;;;6.60;0.85;;;;;;;;;;6184544;23;20033;-78
2022/09/25 11:52:12;;;;;;;4.35;0.90;;;;;;;;;;6188065;23;20029;-79
2022/09/25 11:54:46;;;;;;;5.32;0.90;;;;;;;;;;6185202;23;20026;-78
2022/09/25 11:57:20;;;;;;;2.72;0.60;;;;;;;;;;6186604;23;20065;-78
2022/09/25 11:59:46;;;;;;;3.28;0.80;;;;;;;;;;6186828;23;20033;-78
2022/09/25 12:02:20;;;;;;;1.77;0.63;;;;;;;;;;6187167;23;20897;-77
2022/09/25 12:04:58;;;;;;;2.97;0.73;;;;;;;;;;6180220;23;20116;-78
2022/09/25 12:07:33;;;;;;;2.95;0.60;;;;;;;;;;6130198;23;20030;-78
2022/09/25 12:10:35;;;;;;;3.47;0.75;;;;;;;;;;6130005;23;20155;-78
2022/09/25 12:13:15;;;;;;;3.17;0.70;;;;;;;;;;6036217;23;20493;-76
2022/09/25 12:15:59;;;;;;;3.97;0.90;;;;;;;;;;6114090;23;20022;-75
2022/09/25 12:18:41;;;;;;;3.50;0.70;;;;;;;;;;6128357;23;20499;-76
2022/09/25 12:21:18;;;;;;;3.75;0.82;;;;;;;;;;6153912;23;20471;-76
2022/09/25 12:23:54;;;;;;;3.63;0.63;;;;;;;;;;6153681;23;20537;-75
2022/09/25 12:26:30;;;;;;;2.60;0.73;;;;;;;;;;6155041;23;20025;-76
2022/09/25 12:29:05;;;;;;;3.35;0.70;;;;;;;;;;6147693;23;20032;-75
2022/09/25 12:31:31;;;;;;;5.07;0.98;;;;;;;;;;6151174;23;20037;-77
2022/09/25 12:34:07;;;;;;;4.10;0.80;;;;;;;;;;6128892;23;20047;-76
2022/09/25 12:36:35;;;;;;;2.40;0.75;;;;;;;;;;6155055;23;20025;-77
2022/09/25 12:39:10;;;;;;;3.38;0.80;;;;;;;;;;6155243;23;20040;-77
2022/09/25 12:41:42;;;;;;;2.67;0.70;;;;;;;;;;6129675;23;20018;-77
2022/09/25 12:44:20;;;;;;;3.13;0.60;;;;;;;;;;6130053;23;20081;-76
2022/09/25 12:46:56;;;;;;;3.13;0.60;;;;;;;;;;6154348;23;20037;-76
2022/09/25 12:49:28;;;;;;;5.60;0.80;;;;;;;;;;6128800;23;20026;-76
2022/09/25 12:51:57;;;;;;;4.65;1.17;;;;;;;;;;6127572;23;20041;-77
2022/09/25 12:54:31;;;;;;;4.53;0.60;;;;;;;;;;6129055;23;20454;-78
2022/09/25 12:57:17;;;;;;;2.95;0.70;;;;;;;;;;6155384;23;20040;-76
2022/09/25 12:59:46;;;;;;;5.25;0.80;;;;;;;;;;6086657;23;20030;-78
2022/09/25 13:02:28;;;;;;;2.38;0.60;;;;;;;;;;6130387;23;20033;-74
2022/09/25 13:04:57;;;;;;;4.55;0.80;;;;;;;;;;6138955;23;20076;-78
2022/09/25 13:07:34;;;;;;;2.83;0.60;;;;;;;;;;6185948;23;20113;-78
2022/09/25 13:10:02;;;;;;;3.97;1.08;;;;;;;;;;6187241;23;20021;-79
2022/09/25 13:12:36;;;;;;;4.15;0.90;;;;;;;;;;6185453;23;20026;-78
2022/09/25 13:15:11;;;;;;;2.85;0.75;;;;;;;;;;6186920;23;20021;-79
2022/09/25 13:17:38;;;;;;;3.58;0.80;;;;;;;;;;6184137;23;20033;-76
2022/09/25 13:20:25;;;;;;;2.10;0.63;;;;;;;;;;6184112;23;20057;-78
2022/09/25 13:23:01;;;;;;;3.53;0.80;;;;;;;;;;6184114;23;20760;-76
2022/09/25 13:25:40;;;;;;;3.33;0.85;;;;;;;;;;6185058;23;20028;-77
2022/09/25 13:28:08;;;;;;;4.15;0.63;;;;;;;;;;6183939;23;20025;-78
2022/09/25 13:30:34;;;;;;;3.85;0.80;;;;;;;;;;6184705;23;20801;-79
2022/09/25 13:33:02;;;;;;;3.20;0.90;;;;;;;;;;6184968;23;20076;-75
2022/09/25 13:35:30;;;;;;;2.85;0.60;;;;;;;;;;6184320;23;20017;-77
2022/09/25 13:38:09;;;;;;;1.75;0.68;;;;;;;;;;6185139;23;20025;-78
2022/09/25 13:40:44;;;;;;;3.17;0.90;;;;;;;;;;6184851;23;20445;-77
2022/09/25 13:43:22;;;;;;;2.30;0.75;;;;;;;;;;6185405;23;20030;-78
2022/09/25 13:46:08;;;;;;;4.47;0.80;;;;;;;;;;6185438;23;21040;-76
2022/09/25 13:48:39;;;;;;;5.93;0.80;;;;;;;;;;6186475;23;20063;-78
2022/09/25 13:51:28;;;;;;;7.03;0.85;;;;;;;;;;6185387;23;20029;-77
2022/09/25 13:54:01;;;;;;;3.03;0.80;;;;;;;;;;6173211;23;20523;-78
2022/09/25 13:56:39;;;;;;;3.60;0.90;;;;;;;;;;6185014;23;20506;-78
2022/09/25 13:59:09;;;;;;;3.90;1.05;;;;;;;;;;6185131;23;20080;-77
2022/09/25 14:01:37;;;;;;;3.42;0.80;;;;;;;;;;6183693;23;20040;-77
2022/09/25 14:04:27;;;;;;;3.78;0.98;;;;;;;;;;6184432;23;20029;-78
2022/09/25 14:06:57;;;;;;;3.08;0.70;;;;;;;;;;6171815;23;20025;-77
2022/09/25 14:09:27;;;;;;;6.53;1.85;;;;;;;;;;6182518;23;20029;-78
2022/09/25 14:12:04;;;;;;;2.88;0.88;;;;;;;;;;6185108;23;20045;-77
2022/09/25 14:14:54;;;;;;;5.05;0.85;;;;;;;;;;6186955;23;20033;-78
2022/09/25 14:17:22;;;;;;;2.30;0.77;;;;;;;;;;6186926;23;20040;-77
2022/09/25 14:19:50;;;;;;;1.90;0.70;;;;;;;;;;6184659;23;20414;-78
2022/09/25 14:22:19;;;;;;;3.40;1.00;;;;;;;;;;6185034;23;20103;-78
2022/09/25 14:24:46;;;;;;;2.97;0.75;;;;;;;;;;6186452;23;20025;-76
2022/09/25 14:27:17;;;;;;;5.25;0.90;;;;;;;;;;6185023;23;20080;-78
2022/09/25 14:29:43;;;;;;;3.47;0.80;;;;;;;;;;6185008;23;20478;-77
2022/09/25 14:32:17;;;;;;;3.78;1.00;;;;;;;;;;6184126;23;20433;-77
2022/09/25 14:35:15;;;;;;;2.83;0.95;;;;;;;;;;6185485;23;20026;-76
2022/09/25 14:37:56;;;;;;;2.42;0.77;;;;;;;;;;6186301;23;20030;-77
2022/09/25 14:40:38;;;;;;;3.45;0.80;;;;;;;;;;6186150;23;20029;-76
2022/09/25 14:43:26;;;;;;;3.13;0.93;;;;;;;;;;6184589;23;21071;-78
2022/09/25 14:46:05;;;;;;;3.60;1.08;;;;;;;;;;6185125;23;20030;-77
2022/09/25 14:48:42;;;;;;;4.72;1.15;;;;;;;;;;6186803;23;20700;-78
2022/09/25 14:51:08;;;;;;;;;;;;;;;;;;6185782;23;20033;-77
2022/09/25 14:53:39;;;;;;;3.63;0.93;;;;;;;;;;6184046;23;45377;-78
2022/09/25 14:56:10;;;;;;;3.80;1.02;;;;;;;;;;6184867;23;20029;-78
2022/09/25 14:58:39;;;;;;;4.18;1.00;;;;;;;;;;6185652;23;20041;-79
2022/09/25 15:01:19;;;;;;;3.10;1.02;;;;;;;;;;6185064;23;20395;-78
2022/09/25 15:03:47;;;;;;;3.65;0.98;;;;;;;;;;6183861;23;20036;-77
2022/09/25 15:06:27;;;;;;;4.20;1.00;;;;;;;;;;6162978;23;20052;-78
2022/09/25 15:08:54;;;;;;;4.40;1.00;;;;;;;;;;6156203;23;20033;-78
2022/09/25 15:11:22;;;;;;;5.40;0.90;;;;;;;;;;6129940;23;20041;-77
2022/09/25 15:13:48;;;;;;;3.25;0.95;;;;;;;;;;6156170;23;20030;-78
2022/09/25 15:19:27;;;;;;;3.58;1.10;;;;;;;;;;6156044;23;20526;-78
2022/09/25 15:21:54;;;;;;;4.75;0.80;;;;;;;;;;6118237;23;20026;-77
2022/09/25 15:24:23;;;;;;;4.20;0.80;;;;;;;;;;6154910;23;20065;-76
2022/09/25 15:26:51;;;;;;;4.38;1.10;;;;;;;;;;6156280;23;20034;-78
2022/09/25 15:29:19;;;;;;;4.00;1.30;;;;;;;;;;6154992;23;20030;-78
2022/09/25 15:31:49;;;;;;;3.20;1.30;;;;;;;;;;6126959;23;20037;-77
2022/09/25 15:34:22;;;;;;;5.57;1.40;;;;;;;;;;6127219;23;20058;-76
2022/09/25 15:36:49;;;;;;;4.80;1.25;;;;;;;;;;6156129;23;20089;-79
2022/09/25 15:39:23;;;;;;;4.68;1.13;;;;;;;;;;6131011;23;20849;-78
2022/09/25 15:41:50;;;;;;;4.03;1.20;;;;;;;;;;6128281;23;20021;-77
2022/09/25 15:44:18;;;;;;;6.55;0.80;;;;;;;;;;6154500;23;20494;-77
2022/09/25 15:46:45;;;;;;;3.53;0.82;;;;;;;;;;6131014;23;20375;-77
2022/09/25 15:49:13;;;;;;;2.95;0.65;;;;;;;;;;6156209;23;20423;-77
2022/09/25 15:51:46;;;;;;;2.15;0.73;;;;;;;;;;6156232;23;20038;-77
2022/09/25 15:54:24;;;;;;;6.47;1.08;;;;;;;;;;6132302;23;20440;-78
2022/09/25 15:56:54;;;;;;;2.85;0.77;;;;;;;;;;6154133;23;20030;-78
2022/09/25 15:59:25;;;;;;;1.95;0.60;;;;;;;;;;6154993;23;20037;-76
2022/09/25 16:04:48;;;;;;;3.92;0.73;;;;;;;;;;6156207;23;20026;-77
2022/09/25 16:07:23;;;;;;;3.53;0.80;;;;;;;;;;6129489;23;20675;-76
2022/09/25 16:09:51;;;;;;;2.17;0.70;;;;;;;;;;6128845;23;20030;-77